• Join FlightAware (Why Join?)
  • Login
  • US Flag 
01:10AM EDT


 

Airport Tracker/Info


-or-


 

Live Flight TrackerFlight Track Log ✈ EJA982 ✈ 29-Jul-2013 ✈ KOPF - KTLH

Flight Track Log - Related Links

Times and Time Zones

All times are in EDT time to prevent confusion due to time zone crossing. See the EJA982 flight status page for this flight to view local times or setup timezone preferences in your user account.

Time Position Orientation Groundspeed Altitude Reporting Facility
EDT Latitude Longitude Course Direction KTS MPH feet Rate Location/Type
08:18AM 25.9092 -80.2661 80° East 178 205 400  Level Miami Center
08:19AM 25.9164 -80.2200 80° East 214 246 2,300 1,500 Climbing Miami Center
08:20AM 25.9264 -80.1489 81° East 283 326 3,000 840 Climbing Miami Center
08:21AM 25.9758 -80.1756 334° Northwest 247 284 4,100 1,920 Climbing Miami Center
08:22AM 26.0097 -80.2481 297° West 243 280 7,100 2,880 Climbing Miami Center
08:23AM 26.0456 -80.3231 298° West 249 287 10,100 2,100 Climbing Miami Center
08:24AM 26.0850 -80.4167 295° West 294 338 11,400 1,620 Climbing Miami Center
08:25AM 26.1306 -80.5200 296° West 341 392 13,400 1,860 Climbing Miami Center
08:26AM 26.1758 -80.6278 295° West 371 427 15,200 1,680 Climbing Miami Center
08:27AM 26.2358 -80.7292 303° West 386 444 16,800 1,500 Climbing Miami Center
08:28AM 26.3200 -80.7878 328° Northwest 391 450 18,200 1,440 Climbing Miami Center
08:29AM 26.4244 -80.8653 326° Northwest 409 471 19,700 1,260 Climbing Miami Center
08:30AM 26.5103 -80.9264 328° Northwest 415 478 20,800 1,140 Climbing Miami Center
08:31AM 26.6086 -80.9969 327° Northwest 415 478 22,000 1,440 Climbing Miami Center
08:32AM 26.7131 -81.0728 327° Northwest 415 478 23,700 1,440 Climbing Miami Center
08:33AM 26.8089 -81.1436 327° Northwest 409 471 24,900 1,200 Climbing Miami Center
08:34AM 26.9050 -81.2147 327° Northwest 409 471 26,200 1,080 Climbing Miami Center
08:35AM 26.9950 -81.2786 328° Northwest 415 478 27,100 1,020 Climbing Miami Center
08:36AM 27.1031 -81.3597 326° Northwest 420 483 28,300 1,140 Climbing Miami Center
08:37AM 27.2072 -81.4361 327° Northwest 432 497 29,400 1,080 Climbing Miami Center
08:38AM 27.3092 -81.5128 326° Northwest 440 506 30,500 960 Climbing Miami Center
08:39AM 27.4131 -81.5894 327° Northwest 446 513 31,400 900 Climbing Miami Center
08:40AM 27.5089 -81.6589 327° Northwest 453 521 32,400 720 Climbing Miami Center
08:42AM 27.7806 -81.8536 328° Northwest 463 533 34,000 420 Climbing Jacksonville Center
08:43AM 27.8981 -81.9464 325° Northwest 493 567 34,000  Level Jacksonville Center
08:44AM 28.0114 -82.0369 325° Northwest 504 580 34,000  Level Jacksonville Center
08:45AM 28.1247 -82.1372 322° Northwest 509 586 34,000 -300 Level Jacksonville Center
08:46AM 28.2358 -82.2353 322° Northwest 514 592 33,500 -1,500 Descending Jacksonville Center
08:47AM 28.3492 -82.3383 321° Northwest 514 592 31,000 -2,580 Descending Jacksonville Center
08:48AM 28.4622 -82.4417 321° Northwest 524 603 28,400 -2,580 Descending Jacksonville Center
08:49AM 28.5731 -82.5403 322° Northwest 519 597 25,900 -1,740 Descending Jacksonville Center
08:50AM 28.6778 -82.6347 322° Northwest 498 573 25,000 -1,260 Descending Jacksonville Center
08:51AM 28.7781 -82.7267 321° Northwest 481 554 23,400 -1,500 Descending Jacksonville Center
08:52AM 28.8803 -82.8192 322° Northwest 471 542 22,000 -720 Descending Jacksonville Center
08:53AM 28.9825 -82.9092 322° Northwest 466 536 22,000  Level Jacksonville Center
08:54AM 29.0764 -82.9972 321° Northwest 453 521 22,000  Level Jacksonville Center
08:55AM 29.1725 -83.0853 321° Northwest 448 516 22,000 -360 Level Jacksonville Center
08:56AM 29.2703 -83.1758 321° Northwest 448 516 21,300 -1,140 Descending Jacksonville Center
08:57AM 29.3767 -83.2739 321° Northwest 453 521 19,800 -1,320 Descending Jacksonville Center
08:58AM 29.4786 -83.3672 321° Northwest 453 521 18,700 -1,020 Descending Jacksonville Center
08:59AM 29.5783 -83.4586 321° Northwest 458 527 17,800 -1,080 Descending Jacksonville Center
09:00AM 29.6761 -83.5475 322° Northwest 453 521 16,600 -1,200 Descending Jacksonville Center
09:01AM 29.7675 -83.6342 321° Northwest 447 514 15,500 -1,140 Descending Jacksonville Center
09:02AM 29.8608 -83.7189 322° Northwest 437 503 14,400 -1,860 Descending Jacksonville Center
09:03AM 29.9522 -83.8036 321° Northwest 431 496 11,800 -1,740 Descending Jacksonville Center
09:04AM 30.0372 -83.8836 321° Northwest 414 476 11,000 -480 Descending Jacksonville Center
09:05AM 30.1222 -83.9636 321° Northwest 403 464 10,900 -600 Descending Jacksonville Center
09:06AM 30.1925 -84.0342 319° Northwest 370 426 9,800 -480 Descending Jacksonville Center
09:07AM 30.2717 -84.0686 339° North 314 361 10,000  Climbing Jacksonville Center
09:08AM 30.3572 -84.0722 358° North 304 350 9,900 -1,380 Descending Jacksonville Center
09:09AM 30.4383 -84.0803 355° North 299 344 7,300 -1,500 Descending Jacksonville Center
09:10AM 30.5178 -84.0839 358° North 291 335 7,000 -1,200 Descending Jacksonville Center
09:11AM 30.5908 -84.0894 356° North 272 313 5,000 -2,040 Descending Jacksonville Center
09:13AM 30.5058 -84.2042 229° Southwest  Level Estimated
09:20AM 30.3967 -84.3509 229° Southwest  Level Estimated
09:21AM 30.3967 -84.3509 30° Northeast  Level Estimated
09:22AM 30.3967 -84.3509 30° Northeast  Level Estimated
09:23AM 30.3967 -84.3509 30° Northeast  Level Estimated
09:24AM 30.3967 -84.3509 30° Northeast  Level Estimated
09:25AM 30.3967 -84.3509 30° Northeast  Level Estimated
09:26AM 30.3967 -84.3509 30° Northeast  Level Estimated
09:27AM 30.3967 -84.3509 30° Northeast  Level Estimated
09:28AM 30.3967 -84.3509 30° Northeast  Level Estimated
09:29AM 30.3967 -84.3509 30° Northeast  Level Estimated